• Join FlightAware (Why Join?)
  • Login
  • US Flag 
09:08PM EDT


 

Airport Tracker/Info


-or-


 

Live Flight TrackerFlight Track Log ✈ UAL149 ✈ 26-Apr-2013 ✈ TJSJ / SJU - KIAH

Flight Track Log - Related Links

Times and Time Zones

All times are in EDT time to prevent confusion due to time zone crossing. See the UAL149 flight status page for this flight to view local times or setup timezone preferences in your user account.

Time Position Orientation Groundspeed Altitude Reporting Facility
EDT Latitude Longitude Course Direction KTS MPH feet Rate Location/Type
04:24PM 18.4330 -65.9770 90° East 180 207 900  Level FlightAware
04:24PM 18.4440 -65.9540 63° Northeast 203 234 1,700 1,980 Climbing FlightAware
04:25PM 18.4870 -65.9630 349° North 230 265 3,400 1,920 Climbing FlightAware
04:25PM 18.5100 -65.9820 322° Northwest 262 302 4,000 2,280 Climbing FlightAware
04:26PM 18.5350 -66.0120 311° West 269 310 5,500 2,940 Climbing FlightAware
04:26PM 18.5550 -66.0360 311° West 274 315 6,700 2,820 Climbing FlightAware
04:27PM 18.5820 -66.0670 313° West 282 325 8,100 2,820 Climbing FlightAware
04:27PM 18.6050 -66.0940 312° West 284 327 9,300 2,220 Climbing FlightAware
04:28PM 18.6430 -66.1400 311° West 308 354 10,700 1,440 Climbing FlightAware
04:29PM 18.6850 -66.1890 312° West 350 403 11,400 1,680 Climbing FlightAware
04:29PM 18.7350 -66.2490 311° West 362 417 13,100 2,160 Climbing FlightAware
04:30PM 18.7860 -66.3090 312° West 374 430 14,700 2,160 Climbing FlightAware
04:31PM 18.8320 -66.3640 311° West 378 435 16,200 2,100 Climbing FlightAware
04:31PM 18.8780 -66.4190 311° West 385 443 17,500 1,920 Climbing FlightAware
04:32PM 18.9340 -66.4850 312° West 394 453 19,000 2,100 Climbing FlightAware
04:33PM 18.9880 -66.5390 317° Northwest 395 455 20,500 1,860 Climbing FlightAware
04:34PM 19.0450 -66.5970 316° Northwest 404 465 21,700 1,680 Climbing FlightAware
04:34PM 19.0990 -66.6570 314° West 409 471 22,900 1,620 Climbing FlightAware
04:35PM 19.1540 -66.7280 309° West 418 481 24,000 1,440 Climbing FlightAware
04:36PM 19.2030 -66.7920 309° West 424 488 25,000 1,380 Climbing FlightAware
04:36PM 19.2540 -66.8560 310° West 429 494 25,900 1,260 Climbing FlightAware
04:37PM 19.3090 -66.9270 309° West 436 502 26,800 1,260 Climbing FlightAware
04:38PM 19.3810 -67.0200 309° West 441 507 28,000 1,560 Climbing FlightAware
04:39PM 19.4330 -67.0870 309° West 433 498 29,300 1,860 Climbing FlightAware
04:39PM 19.4880 -67.1590 309° West 422 486 30,700 1,440 Climbing FlightAware
04:40PM 19.5390 -67.2240 310° West 422 486 31,400 960 Climbing FlightAware
04:41PM 19.5950 -67.2970 309° West 425 489 32,100 1,020 Climbing FlightAware
04:42PM 19.6450 -67.3620 309° West 424 488 32,900 1,200 Climbing FlightAware
04:42PM 19.6950 -67.4260 310° West 419 482 33,700 720 Climbing FlightAware
04:43PM 19.7490 -67.4960 309° West 419 482 34,000 180 Climbing FlightAware
04:44PM 19.7970 -67.5590 309° West 417 480 34,000  Level FlightAware
04:45PM 19.8650 -67.6490 309° West 416 479 34,000  Level FlightAware
04:45PM 19.9150 -67.7140 309° West 415 478 34,000  Level FlightAware
04:46PM 19.9670 -67.7820 309° West 414 476 34,000  Level FlightAware
04:47PM 20.0050 -67.8310 310° West 414 476 34,000  Level FlightAware
04:47PM 20.0550 -67.8970 309° West 414 476 34,000  Level FlightAware
04:48PM 20.0960 -67.9510 309° West 414 476 34,000  Level FlightAware
04:49PM 20.1470 -68.0180 309° West 414 476 34,000  Level FlightAware
04:49PM 20.1880 -68.0720 309° West 414 476 34,000  Level FlightAware
04:50PM 20.2290 -68.1260 309° West 414 476 34,000  Level FlightAware
04:51PM 20.2700 -68.1800 309° West 414 476 34,000  Level FlightAware
04:51PM 20.3110 -68.2340 309° West 414 476 34,000  Level FlightAware
04:52PM 20.3620 -68.3010 309° West 414 476 34,000  Level FlightAware
04:53PM 20.4030 -68.3550 309° West 414 476 34,000  Level FlightAware
04:54PM 20.4440 -68.4090 309° West 414 476 34,000  Level FlightAware
04:54PM 20.4850 -68.4630 309° West 414 476 34,000  Level FlightAware
04:55PM 20.5260 -68.5180 309° West 414 476 34,000  Level FlightAware
04:56PM 20.5770 -68.5850 309° West 414 476 34,000  Level FlightAware
04:56PM 20.6180 -68.6390 309° West 414 476 34,000  Level FlightAware
04:57PM 20.6436 -68.9031 309° West 410 472 34,000  Level Miami Center
04:58PM 20.6992 -69.0106 299° West 410 472 34,000  Level Miami Center
04:59PM 20.7567 -69.1181 300° West 415 478 34,000  Level Miami Center
05:00PM 20.8119 -69.2256 299° West 415 478 34,000  Level Miami Center
05:01PM 20.8672 -69.3333 299° West 415 478 34,000  Level Miami Center
05:02PM 20.9203 -69.4411 298° West 415 478 34,000  Level Miami Center
05:03PM 20.9797 -69.5467 301° West 415 478 34,000  Level Miami Center
05:04PM 21.0367 -69.6544 300° West 415 478 34,000 480 Level Miami Center
05:05PM 21.0917 -69.7625 299° West 415 478 35,000 960 Climbing Miami Center
05:06PM 21.1447 -69.8708 298° West 415 478 36,000 480 Climbing Miami Center
05:07PM 21.1994 -69.9769 299° West 415 478 36,000  Level Miami Center
05:08PM 21.2564 -70.0853 299° West 415 478 36,000  Level Miami Center
05:09PM 21.3108 -70.1892 299° West 415 478 36,000  Level Miami Center
05:10PM 21.3656 -70.2956 299° West 410 472 36,000  Level Miami Center
05:11PM 21.4222 -70.4042 299° West 410 472 36,000  Level Miami Center
05:12PM 21.4747 -70.5108 298° West 410 472 36,000  Level Miami Center
05:13PM 21.5292 -70.6175 299° West 405 466 36,000  Level Miami Center
05:14PM 21.5856 -70.7239 300° West 405 466 36,000  Level Miami Center
05:15PM 21.6419 -70.8308 300° West 405 466 36,000  Level Miami Center
05:16PM 21.6983 -70.9397 299° West 405 466 36,000  Level Miami Center
05:17PM 21.7572 -71.0600 298° West 405 466 36,000  Level Miami Center
05:18PM 21.8092 -71.1694 297° West 410 472 36,000  Level Miami Center
05:19PM 21.8633 -71.2764 299° West 410 472 36,000  Level Miami Center
05:20PM 21.9175 -71.3883 298° West 410 472 36,000  Level Miami Center
05:21PM 21.9733 -71.4956 299° West 410 472 36,000  Level Miami Center
05:22PM 22.0250 -71.6031 297° West 410 472 36,000  Level Miami Center
05:23PM 22.0769 -71.7131 297° West 410 472 36,000  Level Miami Center
05:24PM 22.1306 -71.8183 299° West 410 472 36,000  Level Miami Center
05:25PM 22.1842 -71.9239 299° West 404 465 36,000  Level Miami Center
05:26PM 22.2356 -72.0342 297° West 404 465 36,000  Level Miami Center
05:27PM 22.2892 -72.1419 298° West 404 465 36,000  Level Miami Center
05:28PM 22.3425 -72.2478 299° West 404 465 36,000  Level Miami Center
05:29PM 22.3939 -72.3606 296° West 404 465 36,000  Level Miami Center
05:30PM 22.4511 -72.4664 300° West 404 465 36,000  Level Miami Center
05:31PM 22.5025 -72.5814 296° West 409 471 36,000  Level Miami Center
05:32PM 22.5558 -72.6919 298° West 409 471 36,000  Level Miami Center
05:33PM 22.6131 -72.8025 299° West 414 476 36,000  Level Miami Center
05:34PM 22.6619 -72.9136 296° West 414 476 36,000  Level Miami Center
05:35PM 22.7169 -73.0244 298° West 414 476 36,000  Level Miami Center
05:36PM 22.7697 -73.1333 298° West 419 482 36,000  Level Miami Center
05:37PM 22.8119 -73.2311 295° West 412 474 36,000  Level Miami Center
05:38PM 22.8667 -73.3400 299° West 407 468 36,000  Level Miami Center
05:39PM 22.9153 -73.4514 295° West 407 468 36,000  Level Miami Center
05:40PM 22.9742 -73.5625 300° West 412 474 36,000  Level Miami Center
05:41PM 23.0264 -73.6697 298° West 412 474 36,000  Level Miami Center
05:42PM 23.0769 -73.7811 296° West 407 468 36,000  Level Miami Center
05:43PM 23.1314 -73.8997 297° West 407 468 36,000  Level Miami Center
05:44PM 23.1858 -74.0114 298° West 407 468 36,000  Level Miami Center
05:45PM 23.2381 -74.1208 297° West 407 468 36,000  Level Miami Center
05:46PM 23.2903 -74.2328 297° West 407 468 36,000  Level Miami Center
05:47PM 23.3422 -74.3383 298° West 402 463 36,000  Level Miami Center
05:48PM 23.3942 -74.4503 297° West 407 468 36,000  Level Miami Center
05:49PM 23.4439 -74.5603 296° West 402 463 36,000  Level Miami Center
05:50PM 23.4956 -74.6681 298° West 402 463 36,000  Level Miami Center
05:51PM 23.5453 -74.7783 296° West 402 463 36,000  Level Miami Center
05:52PM 23.5969 -74.8886 297° West 402 463 36,000  Level Miami Center
05:53PM 23.6483 -74.9967 297° West 402 463 36,000  Level Miami Center
05:54PM 23.7000 -75.1047 298° West 402 463 36,000  Level Miami Center
05:55PM 23.7492 -75.2131 296° West 402 463 36,000  Level Miami Center
05:56PM 23.7983 -75.3236 296° West 402 463 36,000  Level Miami Center
05:57PM 23.8517 -75.4297 299° West 402 463 36,000  Level Miami Center
05:58PM 23.8967 -75.5292 296° West 402 463 36,000  Level Miami Center
05:59PM 23.9456 -75.6356 297° West 402 463 36,000  Level Miami Center
06:00PM 23.9925 -75.7444 295° West 402 463 36,000  Level Miami Center
06:01PM 24.0456 -75.8575 297° West 402 463 36,000  Level Miami Center
06:02PM 24.0942 -75.9619 297° West 402 463 36,000  Level Miami Center
06:03PM 24.1428 -76.0731 296° West 402 463 36,000  Level Miami Center
06:04PM 24.1914 -76.1800 297° West 402 463 36,000  Level Miami Center
06:05PM 24.2378 -76.2892 295° West 402 463 36,000  Level Miami Center
06:06PM 24.2864 -76.3961 297° West 402 463 36,000  Level Miami Center
06:07PM 24.3369 -76.5053 297° West 402 463 36,000  Level Miami Center
06:08PM 24.3892 -76.6217 296° West 396 456 36,000  Level Miami Center
06:09PM 24.4333 -76.7286 294° West 396 456 36,000  Level Miami Center
06:10PM 24.4836 -76.8358 297° West 396 456 36,000  Level Miami Center
06:11PM 24.5317 -76.9456 296° West 396 456 36,000  Level Miami Center
06:12PM 24.5817 -77.0553 297° West 396 456 36,000  Level Miami Center
06:13PM 24.6253 -77.1628 294° West 396 456 36,000  Level Miami Center
06:14PM 24.6753 -77.2728 297° West 401 461 36,000  Level Miami Center
06:15PM 24.7125 -77.3622 295° West 401 461 36,000  Level Miami Center
06:16PM 24.7644 -77.4814 296° West 401 461 36,000  Level Miami Center
06:21PM 25.0140 -78.0460 296° West 388 447 36,000  Level FlightAware
06:22PM 25.0390 -78.1080 294° West 388 447 36,000  Level FlightAware
06:23PM 25.1040 -78.2510 297° West 389 448 36,000  Level FlightAware
06:24PM 25.1260 -78.3070 293° West 389 448 36,000  Level FlightAware
06:24PM 25.1700 -78.4050 296° West 390 449 36,000  Level FlightAware
06:25PM 25.2030 -78.4820 295° West 391 450 36,000  Level FlightAware
06:26PM 25.2380 -78.5640 295° West 391 450 36,000  Level FlightAware
06:27PM 25.2700 -78.6390 295° West 393 452 36,000  Level FlightAware
06:27PM 25.3010 -78.7110 295° West 392 451 36,000  Level FlightAware
06:28PM 25.3360 -78.7930 295° West 393 452 36,000  Level FlightAware
06:29PM 25.3670 -78.8670 295° West 393 452 36,000  Level FlightAware
06:29PM 25.4020 -78.9490 295° West 393 452 36,000  Level FlightAware
06:30PM 25.4340 -79.0240 295° West 392 451 36,000  Level FlightAware
06:31PM 25.4680 -79.1050 295° West 391 450 36,000  Level FlightAware
06:31PM 25.4980 -79.1760 295° West 393 452 36,000  Level FlightAware
06:32PM 25.5300 -79.2510 295° West 392 451 36,000  Level FlightAware
06:33PM 25.5640 -79.3330 295° West 390 449 36,000  Level FlightAware
06:34PM 25.5950 -79.4060 295° West 389 448 36,000  Level FlightAware
06:34PM 25.6250 -79.4760 295° West 388 447 36,000  Level FlightAware
06:35PM 25.6590 -79.5600 294° West 388 447 36,000  Level FlightAware
06:35PM 25.6820 -79.6130 296° West 388 447 36,000  Level FlightAware
06:36PM 25.7120 -79.6870 294° West 389 448 36,000  Level FlightAware
06:37PM 25.7420 -79.7580 295° West 390 449 36,000  Level FlightAware
06:38PM 25.7770 -79.8410 295° West 391 450 36,000  Level FlightAware
06:38PM 25.8030 -79.9040 295° West 392 451 36,000  Level FlightAware
06:39PM 25.8380 -79.9880 295° West 393 452 36,000  Level FlightAware
06:40PM 25.8720 -80.0700 295° West 393 452 36,000  Level FlightAware
06:40PM 25.9020 -80.1440 294° West 393 452 36,000  Level FlightAware
06:41PM 25.9360 -80.2270 295° West 393 452 36,000  Level FlightAware
06:42PM 25.9670 -80.3010 295° West 393 452 36,000  Level FlightAware
06:42PM 26.0010 -80.3840 295° West 392 451 36,000  Level FlightAware
06:43PM 26.0300 -80.4540 295° West 392 451 36,000  Level FlightAware
06:44PM 26.0670 -80.5500 293° West 391 450 36,000  Level FlightAware
06:45PM 26.0990 -80.6380 292° West 391 450 36,000  Level FlightAware
06:45PM 26.1270 -80.7140 292° West 391 450 36,000  Level FlightAware
06:46PM 26.1540 -80.7870 292° West 390 449 36,000  Level FlightAware
06:47PM 26.1840 -80.8700 292° West 389 448 36,000  Level FlightAware
06:48PM 26.2120 -80.9450 293° West 389 448 36,000  Level FlightAware
06:48PM 26.2420 -81.0280 292° West 389 448 36,000  Level FlightAware
06:49PM 26.2700 -81.1040 292° West 390 449 36,000  Level FlightAware
06:50PM 26.2960 -81.1760 292° West 390 449 36,000  Level FlightAware
06:50PM 26.3270 -81.2620 292° West 389 448 36,000  Level FlightAware
06:51PM 26.3530 -81.3340 292° West 389 448 36,000  Level FlightAware
06:52PM 26.3800 -81.4090 292° West 389 448 36,000  Level FlightAware
06:52PM 26.4110 -81.4940 292° West 389 448 36,000  Level FlightAware
06:53PM 26.4370 -81.5670 292° West 389 448 36,000  Level FlightAware
06:54PM 26.4680 -81.6510 292° West 388 447 36,000  Level FlightAware
06:55PM 26.4940 -81.7250 291° West 388 447 36,000  Level FlightAware
06:55PM 26.5210 -81.8010 292° West 388 447 36,000  Level FlightAware
06:56PM 26.5510 -81.8840 292° West 388 447 36,000  Level FlightAware
06:57PM 26.5770 -81.9580 291° West 389 448 36,000  Level FlightAware
06:57PM 26.6030 -82.0300 292° West 389 448 36,000  Level FlightAware
06:58PM 26.6320 -82.1120 292° West 390 449 36,000  Level FlightAware
06:59PM 26.6610 -82.1940 292° West 389 448 36,000  Level FlightAware
06:59PM 26.6850 -82.2640 291° West 386 444 36,000  Level FlightAware
07:00PM 26.7150 -82.3480 292° West 387 445 36,000  Level FlightAware
07:02PM 26.7810 -82.5330 292° West 382 440 36,000  Level FlightAware
07:02PM 26.8070 -82.6100 291° West 382 440 36,000  Level FlightAware
07:03PM 26.8360 -82.6910 292° West 382 440 36,000  Level FlightAware
07:04PM 26.8630 -82.7680 291° West 382 440 36,000  Level FlightAware
07:05PM 26.8880 -82.8410 291° West 382 440 36,000  Level FlightAware
07:05PM 26.9130 -82.9110 292° West 383 441 36,000  Level FlightAware
07:06PM 26.9490 -83.0170 291° West 387 445 36,000  Level FlightAware
07:07PM 26.9890 -83.1330 291° West 387 445 36,000  Level FlightAware
07:08PM 27.0190 -83.2190 291° West 387 445 36,000  Level FlightAware
07:09PM 27.0410 -83.2840 291° West 387 445 36,000  Level FlightAware
07:09PM 27.0670 -83.3580 292° West 385 443 36,000  Level FlightAware
07:10PM 27.0940 -83.4380 291° West 387 445 36,000  Level FlightAware
07:11PM 27.1250 -83.5280 291° West 389 448 36,000  Level FlightAware
07:11PM 27.1490 -83.6000 291° West 389 448 36,000  Level FlightAware
07:12PM 27.1880 -83.7130 291° West 36,000  Level FlightAware
07:13PM 27.2110 -83.7810 291° West 387 445 36,000  Level FlightAware
07:14PM 27.2420 -83.8730 291° West 387 445 36,000  Level FlightAware
07:14PM 27.2630 -83.9340 291° West 391 450 36,000  Level FlightAware
07:15PM 27.2910 -84.0180 291° West 391 450 36,000  Level FlightAware
07:16PM 27.3220 -84.1080 291° West 388 447 36,000  Level FlightAware
07:16PM 27.3470 -84.1830 291° West 390 449 36,000  Level FlightAware
07:17PM 27.3770 -84.2720 291° West 389 448 36,000  Level FlightAware
07:18PM 27.4020 -84.3460 291° West 389 448 36,000  Level FlightAware
07:19PM 27.4280 -84.4260 290° West 390 449 36,000  Level FlightAware
07:19PM 27.4550 -84.5070 291° West 392 451 36,000  Level FlightAware
07:20PM 27.4820 -84.5890 290° West 393 452 36,000  Level FlightAware
07:21PM 27.5090 -84.6680 291° West 396 456 36,000  Level FlightAware
07:21PM 27.5360 -84.7510 290° West 400 460 36,000  Level FlightAware
07:22PM 27.5600 -84.8220 291° West 402 463 36,000  Level FlightAware
07:23PM 27.5870 -84.9060 290° West 403 464 36,000  Level FlightAware
07:23PM 27.6170 -84.9970 290° West 401 461 36,000  Level FlightAware
07:24PM 27.6480 -85.0910 290° West 401 461 36,000  Level FlightAware
07:25PM 27.6670 -85.1510 290° West 401 461 36,000  Level FlightAware
07:26PM 27.7020 -85.2600 290° West 400 460 36,000  Level FlightAware
07:27PM 27.7280 -85.3440 289° West 400 460 36,000  Level FlightAware
07:27PM 27.7480 -85.4110 289° West 400 460 36,000  Level FlightAware
07:28PM 27.7980 -85.5520 292° West 396 456 36,000  Level FlightAware
07:29PM 27.8250 -85.6350 290° West 395 455 36,000  Level FlightAware
07:29PM 27.8450 -85.6980 290° West 395 455 36,000  Level FlightAware
07:30PM 27.8670 -85.7750 288° West 395 455 36,000  Level FlightAware
07:31PM 27.8910 -85.8580 288° West 395 455 36,000  Level FlightAware
07:32PM 27.9100 -85.9250 288° West 395 455 36,000  Level FlightAware
07:32PM 27.9290 -85.9920 288° West 395 455 36,000  Level FlightAware
07:33PM 27.9490 -86.0590 289° West 395 455 36,000  Level FlightAware
07:34PM 27.9730 -86.1420 288° West 395 455 36,000  Level FlightAware
07:34PM 27.9920 -86.2090 288° West 395 455 36,000  Level FlightAware
07:35PM 28.0110 -86.2760 288° West 395 455 36,000  Level FlightAware
07:36PM 28.0300 -86.3430 288° West 395 455 36,000  Level FlightAware
07:36PM 28.0490 -86.4100 288° West 395 455 36,000  Level FlightAware
07:37PM 28.0730 -86.4940 288° West 395 455 36,000  Level FlightAware
07:38PM 28.0930 -86.5610 289° West 395 455 36,000  Level FlightAware
07:39PM 28.1120 -86.6280 288° West 395 455 36,000  Level FlightAware
07:39PM 28.1310 -86.6950 288° West 395 455 36,000  Level FlightAware
07:40PM 28.2367 -86.9350 288° West 397 457 36,000  Level Jacksonville Center
07:41PM 28.2725 -87.0519 289° West 391 450 36,000  Level Jacksonville Center
07:42PM 28.3106 -87.1689 290° West 396 456 36,000  Level Jacksonville Center
07:43PM 28.3442 -87.2836 288° West 396 456 36,000  Level Jacksonville Center
07:44PM 28.3836 -87.4081 290° West 401 461 36,000  Level Jacksonville Center
07:46PM 28.4750 -87.7081 289° West 403 464 36,000  Level Houston Center
07:47PM 28.5103 -87.8286 288° West 403 464 36,000  Level Houston Center
07:49PM 28.5472 -87.9492 289° West 405 466 36,000  Level Houston Center
07:54PM 28.7180 -88.6900 289° West 401 461 36,000  Level FlightAware
07:55PM 28.7350 -88.7780 282° West 402 463 36,000  Level FlightAware
07:56PM 28.7480 -88.8490 282° West 402 463 36,000  Level FlightAware
07:57PM 28.7610 -88.9190 282° West 402 463 36,000  Level FlightAware
07:57PM 28.7740 -88.9900 282° West 402 463 36,000  Level FlightAware
07:58PM 28.7870 -89.0600 282° West 402 463 36,000  Level FlightAware
07:59PM 28.8040 -89.1490 282° West 402 463 36,000  Level FlightAware
07:59PM 28.8170 -89.2190 282° West 402 463 36,000  Level FlightAware
08:00PM 28.8300 -89.2900 282° West 402 463 36,000  Level FlightAware
08:01PM 28.8430 -89.3600 282° West 402 463 36,000  Level FlightAware
08:01PM 28.8560 -89.4310 282° West 402 463 36,000  Level FlightAware
08:02PM 28.8730 -89.5190 282° West 402 463 36,000  Level FlightAware
08:03PM 28.8860 -89.5900 282° West 402 463 36,000  Level FlightAware
08:04PM 28.8990 -89.6610 282° West 402 463 36,000  Level FlightAware
08:04PM 28.9120 -89.7310 282° West 402 463 36,000  Level FlightAware
08:05PM 28.9564 -89.9669 282° West 397 457 36,000  Level Houston Center
08:06PM 28.9822 -90.1136 281° West 393 452 36,000  Level Houston Center
08:12PM 29.1047 -90.7927 281° West 394 453 36,000  Level FlightAware ADS-B
08:12PM 29.1205 -90.8833 281° West 394 453 36,000  Level FlightAware ADS-B
08:18PM 29.2354 -91.5505 281° West 395 455 36,000  Level FlightAware ADS-B
08:18PM 29.2513 -91.6447 281° West 395 455 36,000  Level FlightAware ADS-B
08:19PM 29.2618 -91.7068 281° West 395 455 36,000  Level FlightAware ADS-B
08:20PM 29.2728 -91.7730 281° West 395 455 36,000  Level FlightAware ADS-B
08:20PM 29.2877 -91.8622 281° West 395 455 36,000  Level FlightAware ADS-B
08:21PM 29.2982 -91.9248 281° West 395 455 36,000  Level FlightAware ADS-B
08:22PM 29.3224 -92.0701 281° West 395 455 36,000  Level FlightAware ADS-B
08:22PM 29.3329 -92.1341 281° West 395 455 36,000  Level FlightAware ADS-B
08:24PM 29.3592 -92.2948 281° West 396 456 36,000  Level FlightAware ADS-B
08:24PM 29.3699 -92.3598 281° West 396 456 36,000  Level FlightAware ADS-B
08:25PM 29.3802 -92.4232 281° West 396 456 36,000  Level FlightAware ADS-B
08:25PM 29.3863 -92.4857 276° West 396 456 36,000  Level FlightAware ADS-B
08:26PM 29.3919 -92.5532 275° West 396 456 36,000  Level FlightAware ADS-B
08:26PM 29.3986 -92.6317 276° West 396 456 36,000  Level FlightAware ADS-B
08:27PM 29.4043 -92.6983 276° West 397 457 36,000  Level FlightAware ADS-B
08:27PM 29.4097 -92.7621 276° West 398 458 36,000  Level FlightAware ADS-B
08:28PM 29.4149 -92.8257 275° West 398 458 36,000  Level FlightAware ADS-B
08:29PM 29.4202 -92.8888 276° West 398 458 36,000  Level FlightAware ADS-B
08:29PM 29.4256 -92.9535 275° West 398 458 36,000  Level FlightAware ADS-B
08:30PM 29.4309 -93.0171 275° West 397 457 36,000  Level FlightAware ADS-B
08:30PM 29.4361 -93.0810 275° West 398 458 36,000 -840 Level FlightAware ADS-B
08:31PM 29.4413 -93.1448 275° West 398 458 35,200 -2,400 Descending FlightAware ADS-B
08:31PM 29.4464 -93.2085 275° West 405 466 33,600 -3,240 Descending FlightAware ADS-B
08:32PM 29.4517 -93.2731 275° West 411 473 32,000 -2,820 Descending FlightAware ADS-B
08:32PM 29.4570 -93.3384 275° West 406 467 30,800 -2,400 Descending FlightAware ADS-B
08:33PM 29.4624 -93.4071 275° West 401 461 29,500 -2,460 Descending FlightAware ADS-B
08:33PM 29.4677 -93.4733 275° West 399 459 28,200 -2,460 Descending FlightAware ADS-B
08:33PM 29.4704 -93.5066 275° West 396 456 27,600 -2,220 Descending FlightAware ADS-B
08:34PM 29.4727 -93.5361 275° West 393 452 27,100 -2,100 Descending FlightAware ADS-B
08:34PM 29.4756 -93.5736 275° West 390 449 26,500 -2,160 Descending FlightAware ADS-B
08:34PM 29.4776 -93.5988 275° West 387 445 26,000 -2,160 Descending FlightAware ADS-B
08:34PM 29.4804 -93.6354 275° West 384 442 25,400 -2,160 Descending FlightAware ADS-B
08:35PM 29.4824 -93.6622 275° West 381 438 24,900 -2,220 Descending FlightAware ADS-B
08:35PM 29.4871 -93.7235 275° West 376 433 23,800 -2,100 Descending FlightAware ADS-B
08:35PM 29.4885 -93.7431 275° West 377 434 23,500 -2,100 Descending FlightAware ADS-B
08:36PM 29.4917 -93.7862 275° West 370 426 22,700 -2,220 Descending FlightAware ADS-B
08:36PM 29.4930 -93.8030 275° West 369 425 22,400 -2,040 Descending FlightAware ADS-B
08:36PM 29.4962 -93.8446 275° West 366 421 21,700 -1,980 Descending FlightAware ADS-B
08:37PM 29.5009 -93.9022 275° West 363 418 20,700 -2,040 Descending FlightAware ADS-B
08:37PM 29.5051 -93.9595 275° West 357 411 19,700 -1,980 Descending FlightAware ADS-B
08:37PM 29.5053 -93.9616 276° West 363 418 19,700 -1,920 Level FlightAware ADS-B
08:38PM 29.5096 -94.0202 275° West 351 404 18,700 -1,920 Descending FlightAware ADS-B
08:38PM 29.5097 -94.0222 273° West 352 405 18,700 -1,800 Level FlightAware ADS-B
08:38PM 29.5139 -94.0769 275° West 347 399 17,800 -1,980 Descending FlightAware ADS-B
08:38PM 29.5140 -94.0786 274° West 347 399 17,700 -2,220 Descending FlightAware ADS-B
08:39PM 29.5179 -94.1325 275° West 347 399 16,700 -2,100 Descending FlightAware ADS-B
08:39PM 29.5220 -94.1880 275° West 346 398 15,600 -2,100 Descending FlightAware ADS-B
08:40PM 29.5261 -94.2438 275° West 345 397 14,600 -2,100 Descending FlightAware ADS-B
08:40PM 29.5301 -94.2996 275° West 343 395 13,500 -2,220 Descending FlightAware ADS-B
08:40PM 29.5322 -94.3239 276° West 342 394 13,000 -1,680 Descending FlightAware ADS-B
08:41PM 29.5347 -94.3384 281° West 340 391 12,900 -720 Descending FlightAware ADS-B
08:41PM 29.5388 -94.3540 287° West 336 387 12,800 -420 Descending FlightAware ADS-B
08:41PM 29.5428 -94.3656 292° West 335 386 12,800  Level FlightAware ADS-B
08:41PM 29.5631 -94.4136 296° West 333 383 12,800  Level FlightAware ADS-B
08:42PM 29.5834 -94.4617 296° West 332 382 12,800  Level FlightAware ADS-B
08:42PM 29.6039 -94.5098 296° West 335 386 12,800  Level FlightAware ADS-B
08:43PM 29.6141 -94.5337 296° West 335 386 12,800  Level FlightAware ADS-B
08:43PM 29.6253 -94.5598 296° West 335 386 12,800  Level FlightAware ADS-B
08:43PM 29.6385 -94.5908 296° West 335 386 12,800 -240 Level FlightAware ADS-B
08:43PM 29.6460 -94.6082 296° West 335 386 12,700 -1,080 Descending FlightAware ADS-B
08:44PM 29.6620 -94.6457 296° West 336 387 12,200 -1,440 Descending FlightAware ADS-B
08:44PM 29.6669 -94.6570 297° West 335 386 12,000 -1,500 Descending FlightAware ADS-B
08:44PM 29.6873 -94.7051 296° West 330 380 11,300 -1,500 Descending FlightAware ADS-B
08:45PM 29.6915 -94.7150 296° West 333 383 11,100 -1,380 Descending FlightAware ADS-B
08:45PM 29.7074 -94.7525 296° West 322 371 10,600 -1,020 Descending FlightAware ADS-B
08:45PM 29.7154 -94.7713 296° West 318 366 10,500 -840 Descending FlightAware ADS-B
08:45PM 29.7268 -94.7985 296° West 314 361 10,200 -1,020 Descending FlightAware ADS-B
08:46PM 29.7345 -94.8168 296° West 315 362 10,000 -1,080 Descending FlightAware ADS-B
08:46PM 29.7372 -94.8233 296° West 315 362 9,900 -660 Descending FlightAware ADS-B
08:46PM 29.7471 -94.8466 296° West 317 365 9,800 -420 Descending FlightAware ADS-B
08:46PM 29.7478 -94.8483 295° West 318 366 9,800  Level FlightAware ADS-B
08:46PM 29.7568 -94.8696 296° West 317 365 9,800  Level FlightAware ADS-B
08:46PM 29.7602 -94.8775 296° West 317 365 9,800  Level FlightAware ADS-B
08:47PM 29.7665 -94.8927 296° West 316 364 9,800  Level FlightAware ADS-B
08:47PM 29.7699 -94.9008 296° West 316 364 9,800  Level FlightAware ADS-B
08:47PM 29.7763 -94.9160 296° West 317 365 9,800  Level FlightAware ADS-B
08:47PM 29.7805 -94.9261 296° West 313 360 9,800  Level FlightAware ADS-B
08:47PM 29.7856 -94.9382 296° West 304 350 9,800 -300 Level FlightAware ADS-B
08:47PM 29.7936 -94.9569 296° West 298 343 9,700 -420 Descending FlightAware ADS-B
08:47PM 29.7948 -94.9597 296° West 290 334 9,700 -1,200 Level FlightAware ADS-B
08:47PM 29.8021 -94.9769 296° West 288 331 9,400 -1,620 Descending FlightAware ADS-B
08:48PM 29.8036 -94.9805 296° West 288 331 9,300 -2,160 Descending FlightAware ADS-B
08:48PM 29.8123 -95.0015 296° West 290 334 8,800 -1,920 Descending FlightAware ADS-B
08:48PM 29.8126 -95.0022 296° West 290 334 8,800 -1,140 Level FlightAware ADS-B
08:48PM 29.8213 -95.0226 296° West 289 333 8,500 -1,380 Descending FlightAware ADS-B
08:48PM 29.8231 -95.0268 296° West 290 334 8,400 -1,620 Descending FlightAware ADS-B
08:48PM 29.8303 -95.0439 296° West 287 330 8,100 -1,440 Descending FlightAware ADS-B
08:48PM 29.8328 -95.0499 296° West 287 330 8,000 -1,620 Descending FlightAware ADS-B
08:49PM 29.8391 -95.0646 296° West 287 330 7,700 -1,620 Descending FlightAware ADS-B
08:49PM 29.8417 -95.0709 295° West 287 330 7,600 -1,620 Descending FlightAware ADS-B
08:49PM 29.8478 -95.0854 296° West 288 331 7,300 -1,680 Descending FlightAware ADS-B
08:49PM 29.8525 -95.0964 296° West 288 331 7,100 -1,920 Descending FlightAware ADS-B
08:49PM 29.8566 -95.1063 296° West 291 335 6,800 -1,920 Descending FlightAware ADS-B
08:49PM 29.8617 -95.1183 296° West 292 336 6,600 -1,620 Descending FlightAware ADS-B
08:49PM 29.8656 -95.1277 296° West 293 337 6,400 -1,920 Descending FlightAware ADS-B
08:49PM 29.8712 -95.1410 296° West 293 337 6,100 -1,620 Descending FlightAware ADS-B
08:50PM 29.8746 -95.1491 296° West 293 337 6,000 -1,020 Descending FlightAware ADS-B
08:50PM 29.8814 -95.1653 296° West 291 335 5,800 -840 Descending FlightAware ADS-B
08:50PM 29.8835 -95.1703 296° West 289 333 5,800  Level FlightAware ADS-B
08:50PM 29.8892 -95.1843 295° West 287 330 5,800  Level FlightAware ADS-B
08:50PM 29.8911 -95.1894 293° West 288 331 5,800  Level FlightAware ADS-B
08:50PM 29.8922 -95.1928 290° West 284 327 5,800  Level FlightAware ADS-B
08:50PM 29.8940 -95.1989 289° West 283 326 5,800  Level FlightAware ADS-B
08:50PM 29.8954 -95.2045 286° West 282 325 5,800  Level FlightAware ADS-B
08:50PM 29.8969 -95.2119 283° West 279 321 5,800  Level FlightAware ADS-B
08:50PM 29.8975 -95.2151 282° West 278 320 5,800  Level FlightAware ADS-B
08:50PM 29.8978 -95.2177 278° West 277 319 5,800  Level FlightAware ADS-B
08:50PM 29.8986 -95.2245 278° West 276 318 5,800  Level FlightAware ADS-B
08:50PM 29.8988 -95.2274 275° West 275 316 5,800  Level FlightAware ADS-B
08:51PM 29.8991 -95.2324 274° West 274 315 5,800  Level FlightAware ADS-B
08:51PM 29.8992 -95.2420 271° West 272 313 5,800  Level FlightAware ADS-B
08:51PM 29.8993 -95.2641 270° West 272 313 5,800  Level FlightAware ADS-B
08:51PM 29.8993 -95.2663 270° West 272 313 5,800  Level FlightAware ADS-B
08:51PM 29.8995 -95.2859 271° West 272 313 5,800  Level FlightAware ADS-B
08:51PM 29.8995 -95.2880 270° West 272 313 5,800  Level FlightAware ADS-B
08:51PM 29.8996 -95.3082 270° West 271 312 5,800  Level FlightAware ADS-B
08:51PM 29.8997 -95.3122 272° West 271 312 5,800  Level FlightAware ADS-B
08:52PM 29.8999 -95.3465 270° West 268 308 5,800  Level FlightAware ADS-B
08:52PM 29.9000 -95.3669 270° West 270 311 5,800  Level FlightAware ADS-B
08:52PM 29.9001 -95.3739 271° West 253 291 5,800  Level FlightAware ADS-B
08:52PM 29.9001 -95.3813 270° West 243 280 5,800  Level FlightAware ADS-B
08:53PM 29.9001 -95.4027 270° West 231 266 5,800  Level FlightAware ADS-B
08:53PM 29.9001 -95.4205 270° West 226 260 5,800  Level FlightAware ADS-B
08:53PM 29.9001 -95.4211 270° West 225 259 5,800  Level FlightAware ADS-B
08:53PM 29.9002 -95.4394 270° West 225 259 5,800 180 Level FlightAware ADS-B
08:53PM 29.9002 -95.4532 270° West 225 259 5,900 360 Climbing FlightAware ADS-B
08:53PM 29.9002 -95.4590 270° West 246 283 5,900 -360 Level FlightAware ADS-B
08:54PM 29.9003 -95.4773 270° West 256 295 5,800 -420 Descending FlightAware ADS-B
08:54PM 29.9003 -95.4822 270° West 262 302 5,800  Level FlightAware ADS-B
08:54PM 29.9005 -95.5040 271° West 267 307 5,800  Level FlightAware ADS-B
08:54PM 29.9006 -95.5104 271° West 268 308 5,800  Level FlightAware ADS-B
08:54PM 29.9008 -95.5259 271° West 269 310 5,800  Level FlightAware ADS-B
08:54PM 29.9009 -95.5353 271° West 269 310 5,800  Level FlightAware ADS-B
08:54PM 29.9010 -95.5494 270° West 268 308 5,800 -300 Level FlightAware ADS-B
08:55PM 29.9011 -95.5661 270° West 265 305 5,700 -840 Descending FlightAware ADS-B
08:55PM 29.9011 -95.5717 270° West 263 303 5,600 -2,400 Descending FlightAware ADS-B
08:55PM 29.9012 -95.5955 270° West 270 311 4,900 -2,340 Descending FlightAware ADS-B
08:55PM 29.9014 -95.6207 271° West 274 315 4,300 -2,100 Descending FlightAware ADS-B
08:55PM 29.9015 -95.6289 271° West 273 314 4,100 -1,500 Descending FlightAware ADS-B
08:55PM 29.9025 -95.6373 278° West 273 314 4,000 -1,380 Descending FlightAware ADS-B
08:55PM 29.9037 -95.6423 285° West 273 314 3,900 -900 Descending FlightAware ADS-B
08:56PM 29.9054 -95.6470 293° West 272 313 3,900 -780 Level FlightAware ADS-B
08:56PM 29.9081 -95.6523 300° West 270 311 3,800 -900 Descending FlightAware ADS-B
08:56PM 29.9105 -95.6558 308° West 269 310 3,800  Level FlightAware ADS-B
08:56PM 29.9173 -95.6628 318° Northwest 263 303 3,800  Level FlightAware ADS-B
08:56PM 29.9209 -95.6653 329° Northwest 259 298 3,800  Level FlightAware ADS-B
08:56PM 29.9259 -95.6677 337° Northwest 255 293 3,800  Level FlightAware ADS-B
08:56PM 29.9305 -95.6692 344° North 251 289 3,800  Level FlightAware ADS-B
08:56PM 29.9380 -95.6699 355° North 247 284 3,800  Level FlightAware ADS-B
08:56PM 29.9485 -95.6693 North 245 282 3,800  Level FlightAware ADS-B
08:56PM 29.9599 -95.6681 North 243 280 3,800  Level FlightAware ADS-B
08:56PM 29.9641 -95.6670 13° North 241 277 3,800  Level FlightAware ADS-B
08:57PM 29.9674 -95.6656 20° North 240 276 3,800  Level FlightAware ADS-B
08:57PM 29.9712 -95.6635 26° Northeast 240 276 3,800  Level FlightAware ADS-B
08:57PM 29.9748 -95.6607 34° Northeast 238 274 3,800  Level FlightAware ADS-B
08:57PM 29.9780 -95.6575 41° Northeast 237 273 3,800  Level FlightAware ADS-B
08:57PM 29.9804 -95.6544 48° Northeast 235 270 3,800  Level FlightAware ADS-B
08:57PM 29.9835 -95.6491 56° Northeast 234 269 3,800  Level FlightAware ADS-B
08:57PM 29.9858 -95.6446 59° Northeast 233 268 3,800  Level FlightAware ADS-B
08:57PM 29.9879 -95.6400 62° Northeast 233 268 3,800  Level FlightAware ADS-B
08:57PM 29.9893 -95.6362 67° East 232 267 3,800  Level FlightAware ADS-B
08:57PM 29.9907 -95.6312 72° East 231 266 3,800  Level FlightAware ADS-B
08:57PM 29.9917 -95.6257 78° East 229 264 3,800  Level FlightAware ADS-B
08:57PM 29.9925 -95.6180 83° East 224 258 3,800  Level FlightAware ADS-B
08:57PM 29.9928 -95.6105 87° East 217 250 3,800  Level FlightAware ADS-B
08:58PM 29.9930 -95.5979 89° East 210 242 3,800 -300 Level FlightAware ADS-B
08:58PM 29.9930 -95.5857 90° East 210 242 3,700 -900 Descending FlightAware ADS-B
08:58PM 29.9930 -95.5675 90° East 209 241 3,400 -1,140 Descending FlightAware ADS-B
08:58PM 29.9930 -95.5505 90° East 211 243 3,100 -960 Descending FlightAware ADS-B
08:59PM 29.9931 -95.5312 90° East 204 235 2,900 -1,020 Descending FlightAware ADS-B
08:59PM 29.9932 -95.5110 90° East 195 224 2,500 -1,200 Descending FlightAware ADS-B
08:59PM 29.9932 -95.4950 90° East 188 216 2,200 -960 Descending FlightAware ADS-B
08:59PM 29.9932 -95.4791 90° East 185 213 2,000 -1,020 Descending FlightAware ADS-B
09:00PM 29.9932 -95.4639 90° East 182 209 1,700 -1,020 Descending FlightAware ADS-B
09:00PM 29.9933 -95.4502 90° East 173 199 1,500 -900 Descending FlightAware ADS-B
09:00PM 29.9933 -95.4327 90° East 158 182 1,200 -900 Descending FlightAware ADS-B
09:01PM 29.9933 -95.4207 90° East 145 167 1,000 -660 Descending FlightAware ADS-B
09:01PM 29.9933 -95.4115 90° East 143 165 900 -660 Descending FlightAware ADS-B
09:01PM 29.9934 -95.3998 89° East 140 161 700 -900 Descending FlightAware ADS-B
09:01PM 29.9934 -95.3912 90° East 137 158 500 -720 Descending FlightAware ADS-B
09:01PM 29.9934 -95.3818 90° East 137 158 400 -660 Descending FlightAware ADS-B
09:02PM 29.9934 -95.3769 90° East 138 159 300 -840 Descending FlightAware ADS-B
09:02PM 29.9935 -95.3656 89° East 137 158 100 -780 Descending FlightAware ADS-B
09:02PM 29.9934 -95.3598 91° East 137 158 -780 Descending FlightAware ADS-B